SBDN Informações do Aeroporto

Informações da Pista
Pista 12 Comprimento 6923 ft Largura 115 ft
Elevação 0 ft Limite 0 ft Heading 0
Pista 30 Comprimento 6923 ft Largura 115 ft
Elevação 0 ft Limite 0 ft Heading 0
Frequências do Aeroporto
Tipo AFIS Nome PRUDENTE R Frequência 118.45 MHZ
Tipo APP Nome PRUDENTE A Frequência 118.45 MHZ
Tipo TWR Nome PRUDENTE T Frequência 118.45 MHZ
Navaids do Aeroporto
Tipo VOR-DME Nome Prudente Frequência 113500 KHZ
Tipo NDB Nome Prudente Frequência 225 KHZ
Informações meteorológicas do aeroporto e NOTAM
ADDS - METARS form results

(2001 UTC 24 March 2019)
Data provider http://aviationweather.gov/metar/data/
 
Forecast for: SBDN (PRESIDENTE PRUDE, BR)
Text: TAF SBDN 241500Z 2418/2506 15008KT 9999 SCT030 TX33/2418Z TN23/2506Z
Forecast period: 1800 to 2200 UTC 24 March 2019
Forecast type: FROM: standard forecast or significant change
Winds: from the SSE (150 degrees) at 9 MPH (8 knots; 4.1 m/s)
Visibility: 6 or more miles 10+ km)
Ceiling: at least 12,000 feet AGL
Clouds: scattered clouds at 3000 feet AGL
Weather: no significant weather forecast for this period
Text: BECMG 2422/2424 11004KT CAVOK RMK PER
Forecast period: 2200 UTC 24 March 2019 to 0600 UTC 25 March 2019
Forecast type: BECOMING: Conditions expected to become as follows by 0000 UTC 25 March 2019
Winds: from the ESE (110 degrees) at 5 MPH (4 knots; 2.1 m/s)
Visibility: 6 or more miles 10+ km)
Ceiling: unknown
Clouds: missing
Weather: NSW  (no significant weather)